sensor_id;sensor_type;location;lat;lon;timestamp;temperature;humidity
61339;DHT22;47213;52.362;4.606;2023-07-29T00:02:18;-6.80;26.10
61339;DHT22;47213;52.362;4.606;2023-07-29T00:07:18;-6.70;26.10
61339;DHT22;47213;52.362;4.606;2023-07-29T00:12:18;-6.80;26.10
61339;DHT22;47213;52.362;4.606;2023-07-29T00:22:18;-7.00;26.10
61339;DHT22;47213;52.362;4.606;2023-07-29T00:32:18;-6.90;26.10
61339;DHT22;47213;52.362;4.606;2023-07-29T00:37:18;-6.70;26.10
61339;DHT22;47213;52.362;4.606;2023-07-29T00:42:18;-6.60;26.10
61339;DHT22;47213;52.362;4.606;2023-07-29T00:52:18;-6.80;26.10
61339;DHT22;47213;52.362;4.606;2023-07-29T00:57:18;-6.60;26.10
61339;DHT22;47213;52.362;4.606;2023-07-29T01:02:18;-6.80;26.10
61339;DHT22;47213;52.362;4.606;2023-07-29T01:07:23;-6.70;26.10
61339;DHT22;47213;52.362;4.606;2023-07-29T01:12:20;-6.60;26.10
61339;DHT22;47213;52.362;4.606;2023-07-29T01:17:29;-6.50;26.10
61339;DHT22;47213;52.362;4.606;2023-07-29T01:22:18;-6.40;26.10
61339;DHT22;47213;52.362;4.606;2023-07-29T01:52:18;-6.50;26.10
61339;DHT22;47213;52.362;4.606;2023-07-29T01:57:18;-6.40;26.10
61339;DHT22;47213;52.362;4.606;2023-07-29T02:07:18;-6.30;26.10
61339;DHT22;47213;52.362;4.606;2023-07-29T02:12:20;-6.40;26.10
61339;DHT22;47213;52.362;4.606;2023-07-29T02:17:18;-6.30;26.10
61339;DHT22;47213;52.362;4.606;2023-07-29T02:22:18;-6.40;26.10
61339;DHT22;47213;52.362;4.606;2023-07-29T02:32:18;-6.50;26.10
61339;DHT22;47213;52.362;4.606;2023-07-29T02:42:18;-6.70;26.10
61339;DHT22;47213;52.362;4.606;2023-07-29T02:47:18;-6.60;26.10
61339;DHT22;47213;52.362;4.606;2023-07-29T02:57:18;-6.50;26.10
61339;DHT22;47213;52.362;4.606;2023-07-29T03:12:18;-6.60;26.10
61339;DHT22;47213;52.362;4.606;2023-07-29T03:17:18;-6.50;26.10
61339;DHT22;47213;52.362;4.606;2023-07-29T03:22:18;-6.70;26.10
61339;DHT22;47213;52.362;4.606;2023-07-29T03:27:18;-6.60;26.10
61339;DHT22;47213;52.362;4.606;2023-07-29T03:32:18;-6.70;26.10
61339;DHT22;47213;52.362;4.606;2023-07-29T03:42:18;-6.80;26.10
61339;DHT22;47213;52.362;4.606;2023-07-29T03:47:18;-6.60;26.10
61339;DHT22;47213;52.362;4.606;2023-07-29T04:02:18;-6.70;26.10
61339;DHT22;47213;52.362;4.606;2023-07-29T04:07:19;-6.60;26.10
61339;DHT22;47213;52.362;4.606;2023-07-29T04:17:19;-6.50;26.10
61339;DHT22;47213;52.362;4.606;2023-07-29T04:27:19;-6.40;26.10
61339;DHT22;47213;52.362;4.606;2023-07-29T04:32:19;-6.50;26.10
61339;DHT22;47213;52.362;4.606;2023-07-29T04:52:19;-6.70;26.10
61339;DHT22;47213;52.362;4.606;2023-07-29T04:57:19;-6.60;26.10
61339;DHT22;47213;52.362;4.606;2023-07-29T05:07:19;-6.50;26.10
61339;DHT22;47213;52.362;4.606;2023-07-29T05:12:19;-6.70;26.10
61339;DHT22;47213;52.362;4.606;2023-07-29T05:22:19;-6.80;26.10
61339;DHT22;47213;52.362;4.606;2023-07-29T05:27:19;-6.70;26.10
61339;DHT22;47213;52.362;4.606;2023-07-29T05:32:19;-6.60;26.10
61339;DHT22;47213;52.362;4.606;2023-07-29T05:42:19;-6.80;26.10
61339;DHT22;47213;52.362;4.606;2023-07-29T05:47:19;-7.00;26.10
61339;DHT22;47213;52.362;4.606;2023-07-29T05:57:19;-7.10;26.10
61339;DHT22;47213;52.362;4.606;2023-07-29T06:02:19;-7.00;26.10
61339;DHT22;47213;52.362;4.606;2023-07-29T06:07:19;-7.10;26.10
61339;DHT22;47213;52.362;4.606;2023-07-29T06:17:19;-7.00;26.10
61339;DHT22;47213;52.362;4.606;2023-07-29T06:47:19;-7.20;26.10
61339;DHT22;47213;52.362;4.606;2023-07-29T06:52:19;-7.30;26.10
61339;DHT22;47213;52.362;4.606;2023-07-29T06:57:19;-7.20;26.10
61339;DHT22;47213;52.362;4.606;2023-07-29T07:12:19;-7.30;26.10
61339;DHT22;47213;52.362;4.606;2023-07-29T07:17:19;-7.10;26.10
61339;DHT22;47213;52.362;4.606;2023-07-29T07:22:19;-7.30;26.10
61339;DHT22;47213;52.362;4.606;2023-07-29T07:27:19;-7.40;26.10
61339;DHT22;47213;52.362;4.606;2023-07-29T07:42:19;-7.30;26.10
61339;DHT22;47213;52.362;4.606;2023-07-29T07:47:19;-7.10;26.10
61339;DHT22;47213;52.362;4.606;2023-07-29T07:52:19;-7.20;26.10
61339;DHT22;47213;52.362;4.606;2023-07-29T07:57:21;-7.10;26.10
61339;DHT22;47213;52.362;4.606;2023-07-29T08:07:19;-7.50;26.10
61339;DHT22;47213;52.362;4.606;2023-07-29T08:12:19;-7.30;26.10
61339;DHT22;47213;52.362;4.606;2023-07-29T08:17:19;-7.00;26.10
61339;DHT22;47213;52.362;4.606;2023-07-29T08:27:19;-7.10;26.10
61339;DHT22;47213;52.362;4.606;2023-07-29T08:32:19;-7.20;26.10
61339;DHT22;47213;52.362;4.606;2023-07-29T08:37:19;-7.40;26.10
61339;DHT22;47213;52.362;4.606;2023-07-29T08:42:19;-7.50;26.10
61339;DHT22;47213;52.362;4.606;2023-07-29T08:52:19;-7.30;26.10
61339;DHT22;47213;52.362;4.606;2023-07-29T08:57:19;-7.20;26.10
61339;DHT22;47213;52.362;4.606;2023-07-29T09:02:19;-7.10;26.10
61339;DHT22;47213;52.362;4.606;2023-07-29T09:07:19;-7.40;26.10
61339;DHT22;47213;52.362;4.606;2023-07-29T09:32:20;-7.60;26.10
61339;DHT22;47213;52.362;4.606;2023-07-29T09:37:21;-7.70;26.10
61339;DHT22;47213;52.362;4.606;2023-07-29T09:42:21;-7.80;26.10
61339;DHT22;47213;52.362;4.606;2023-07-29T09:47:20;-8.20;26.10
61339;DHT22;47213;52.362;4.606;2023-07-29T09:52:20;-8.50;26.10
61339;DHT22;47213;52.362;4.606;2023-07-29T10:02:20;-8.20;26.10
61339;DHT22;47213;52.362;4.606;2023-07-29T10:07:19;-7.70;26.10
61339;DHT22;47213;52.362;4.606;2023-07-29T10:12:19;-7.40;26.10
61339;DHT22;47213;52.362;4.606;2023-07-29T10:17:20;-7.50;26.10
61339;DHT22;47213;52.362;4.606;2023-07-29T10:27:20;-7.40;26.10
61339;DHT22;47213;52.362;4.606;2023-07-29T10:32:20;-7.20;26.10
61339;DHT22;47213;52.362;4.606;2023-07-29T10:37:20;-7.40;26.10
61339;DHT22;47213;52.362;4.606;2023-07-29T10:42:20;-7.30;26.10
61339;DHT22;47213;52.362;4.606;2023-07-29T10:47:22;-8.30;26.10
61339;DHT22;47213;52.362;4.606;2023-07-29T10:52:28;-8.70;26.10
61339;DHT22;47213;52.362;4.606;2023-07-29T10:57:36;-9.20;26.10
61339;DHT22;47213;52.362;4.606;2023-07-29T11:02:20;-11.00;26.10
61339;DHT22;47213;52.362;4.606;2023-07-29T11:07:20;-10.40;21.10
61339;DHT22;47213;52.362;4.606;2023-07-29T11:12:36;-9.50;20.50
61339;DHT22;47213;52.362;4.606;2023-07-29T11:17:20;-9.00;26.10
61339;DHT22;47213;52.362;4.606;2023-07-29T11:22:20;-9.40;24.50
61339;DHT22;47213;52.362;4.606;2023-07-29T11:27:20;-9.20;26.10
61339;DHT22;47213;52.362;4.606;2023-07-29T11:32:20;-8.90;26.10
61339;DHT22;47213;52.362;4.606;2023-07-29T11:37:20;-9.00;26.10
61339;DHT22;47213;52.362;4.606;2023-07-29T11:43:55;-8.60;26.10
61339;DHT22;47213;52.362;4.606;2023-07-29T11:47:48;unavailable;unavailable
61339;DHT22;47213;52.362;4.606;2023-07-29T11:47:49;-8.60;unavailable
61339;DHT22;47213;52.362;4.606;2023-07-29T11:52:20;-8.90;26.10
61339;DHT22;47213;52.362;4.606;2023-07-29T11:57:20;-9.30;26.10
61339;DHT22;47213;52.362;4.606;2023-07-29T12:02:20;-9.40;26.10
61339;DHT22;47213;52.362;4.606;2023-07-29T12:07:20;-9.80;24.30
61339;DHT22;47213;52.362;4.606;2023-07-29T12:12:21;-10.40;23.70
61339;DHT22;47213;52.362;4.606;2023-07-29T12:17:20;-10.30;21.70
61339;DHT22;47213;52.362;4.606;2023-07-29T12:22:20;-10.10;19.20
61339;DHT22;47213;52.362;4.606;2023-07-29T12:27:21;-9.70;21.00
61339;DHT22;47213;52.362;4.606;2023-07-29T12:32:20;-9.50;22.30
61339;DHT22;47213;52.362;4.606;2023-07-29T12:37:20;-9.90;23.60
61339;DHT22;47213;52.362;4.606;2023-07-29T12:52:20;-9.80;22.20
61339;DHT22;47213;52.362;4.606;2023-07-29T12:57:20;-9.90;23.50
61339;DHT22;47213;52.362;4.606;2023-07-29T13:02:20;-10.10;23.50
61339;DHT22;47213;52.362;4.606;2023-07-29T13:07:20;-10.20;21.20
61339;DHT22;47213;52.362;4.606;2023-07-29T13:12:20;-9.80;21.00
61339;DHT22;47213;52.362;4.606;2023-07-29T13:17:21;-9.50;21.00
61339;DHT22;47213;52.362;4.606;2023-07-29T13:22:20;-9.60;22.60
61339;DHT22;47213;52.362;4.606;2023-07-29T13:27:20;-9.40;24.20
61339;DHT22;47213;52.362;4.606;2023-07-29T13:32:20;-9.30;24.20
61339;DHT22;47213;52.362;4.606;2023-07-29T13:37:20;-9.50;23.80
61339;DHT22;47213;52.362;4.606;2023-07-29T13:42:20;-9.30;23.80
61339;DHT22;47213;52.362;4.606;2023-07-29T13:47:20;-9.20;22.60
61339;DHT22;47213;52.362;4.606;2023-07-29T13:52:20;-9.70;21.60
61339;DHT22;47213;52.362;4.606;2023-07-29T14:02:20;-9.80;18.50
61339;DHT22;47213;52.362;4.606;2023-07-29T14:12:20;-10.00;19.00
61339;DHT22;47213;52.362;4.606;2023-07-29T14:17:20;-10.20;20.80
61339;DHT22;47213;52.362;4.606;2023-07-29T14:22:20;-10.60;20.00
61339;DHT22;47213;52.362;4.606;2023-07-29T14:27:20;-10.30;20.40
61339;DHT22;47213;52.362;4.606;2023-07-29T14:32:20;-10.20;17.50
61339;DHT22;47213;52.362;4.606;2023-07-29T14:37:20;-10.40;15.50
61339;DHT22;47213;52.362;4.606;2023-07-29T14:42:20;-10.20;15.50
61339;DHT22;47213;52.362;4.606;2023-07-29T14:47:20;-9.90;17.30
61339;DHT22;47213;52.362;4.606;2023-07-29T14:57:20;-9.70;18.90
61339;DHT22;47213;52.362;4.606;2023-07-29T15:07:20;-9.90;18.60
61339;DHT22;47213;52.362;4.606;2023-07-29T15:12:20;-9.80;18.60
61339;DHT22;47213;52.362;4.606;2023-07-29T15:17:20;-9.70;17.20
61339;DHT22;47213;52.362;4.606;2023-07-29T15:22:20;-10.10;17.20
61339;DHT22;47213;52.362;4.606;2023-07-29T15:27:20;-9.90;17.50
61339;DHT22;47213;52.362;4.606;2023-07-29T15:37:20;-9.60;16.80
61339;DHT22;47213;52.362;4.606;2023-07-29T15:42:20;-9.80;16.50
61339;DHT22;47213;52.362;4.606;2023-07-29T15:47:20;-9.70;17.50
61339;DHT22;47213;52.362;4.606;2023-07-29T15:52:20;-9.90;17.20
61339;DHT22;47213;52.362;4.606;2023-07-29T15:57:20;-9.80;17.40
61339;DHT22;47213;52.362;4.606;2023-07-29T16:02:20;-9.70;15.90
61339;DHT22;47213;52.362;4.606;2023-07-29T16:17:21;-9.50;8.50
61339;DHT22;47213;52.362;4.606;2023-07-29T16:27:21;-9.70;10.80
61339;DHT22;47213;52.362;4.606;2023-07-29T16:32:21;-9.40;12.20
61339;DHT22;47213;52.362;4.606;2023-07-29T16:37:21;-9.50;10.10
61339;DHT22;47213;52.362;4.606;2023-07-29T16:42:21;-9.20;11.80
61339;DHT22;47213;52.362;4.606;2023-07-29T16:57:21;-9.00;11.40
61339;DHT22;47213;52.362;4.606;2023-07-29T17:02:21;-8.90;13.70
61339;DHT22;47213;52.362;4.606;2023-07-29T17:12:21;-8.60;17.00
61339;DHT22;47213;52.362;4.606;2023-07-29T17:22:21;-8.80;19.60
61339;DHT22;47213;52.362;4.606;2023-07-29T17:27:21;-8.70;20.00
61339;DHT22;47213;52.362;4.606;2023-07-29T17:42:21;-8.30;21.00
61339;DHT22;47213;52.362;4.606;2023-07-29T17:47:21;-8.50;21.60
61339;DHT22;47213;52.362;4.606;2023-07-29T17:52:21;-8.30;22.20
61339;DHT22;47213;52.362;4.606;2023-07-29T17:57:21;-8.50;21.60
61339;DHT22;47213;52.362;4.606;2023-07-29T18:02:21;-8.40;22.20
61339;DHT22;47213;52.362;4.606;2023-07-29T18:07:21;-8.30;22.20
61339;DHT22;47213;52.362;4.606;2023-07-29T18:12:21;-8.00;22.10
61339;DHT22;47213;52.362;4.606;2023-07-29T18:22:21;-8.10;23.90
61339;DHT22;47213;52.362;4.606;2023-07-29T18:27:21;-8.00;24.50
61339;DHT22;47213;52.362;4.606;2023-07-29T18:37:21;-8.10;25.80
61339;DHT22;47213;52.362;4.606;2023-07-29T18:42:21;-8.00;25.60
61339;DHT22;47213;52.362;4.606;2023-07-29T18:52:21;-7.80;26.10
61339;DHT22;47213;52.362;4.606;2023-07-29T18:57:21;-7.90;26.10
61339;DHT22;47213;52.362;4.606;2023-07-29T19:02:21;-7.80;26.10
61339;DHT22;47213;52.362;4.606;2023-07-29T19:12:21;-7.50;26.10
61339;DHT22;47213;52.362;4.606;2023-07-29T19:22:21;-7.40;26.10
61339;DHT22;47213;52.362;4.606;2023-07-29T19:32:21;-7.50;26.10
61339;DHT22;47213;52.362;4.606;2023-07-29T19:42:21;-7.20;26.10
61339;DHT22;47213;52.362;4.606;2023-07-29T19:47:21;-7.30;26.10
61339;DHT22;47213;52.362;4.606;2023-07-29T19:52:21;-7.20;26.10
61339;DHT22;47213;52.362;4.606;2023-07-29T19:57:21;-7.00;26.10
61339;DHT22;47213;52.362;4.606;2023-07-29T20:07:21;-7.10;26.10
61339;DHT22;47213;52.362;4.606;2023-07-29T20:11:02;unavailable;unavailable
61339;DHT22;47213;52.362;4.606;2023-07-29T20:18:13;-7.10;unavailable
61339;DHT22;47213;52.362;4.606;2023-07-29T20:22:21;-7.00;26.10
61339;DHT22;47213;52.362;4.606;2023-07-29T20:27:21;-7.10;26.10
61339;DHT22;47213;52.362;4.606;2023-07-29T20:32:21;-6.90;26.10
61339;DHT22;47213;52.362;4.606;2023-07-29T20:37:21;-6.80;26.10
61339;DHT22;47213;52.362;4.606;2023-07-29T20:52:21;-6.70;26.10
61339;DHT22;47213;52.362;4.606;2023-07-29T20:57:21;-6.80;26.10
61339;DHT22;47213;52.362;4.606;2023-07-29T21:07:21;-6.70;26.10
61339;DHT22;47213;52.362;4.606;2023-07-29T21:17:21;-6.80;26.10
61339;DHT22;47213;52.362;4.606;2023-07-29T21:22:21;-6.90;26.10
61339;DHT22;47213;52.362;4.606;2023-07-29T21:27:21;-6.70;26.10
61339;DHT22;47213;52.362;4.606;2023-07-29T21:32:21;-6.60;26.10
61339;DHT22;47213;52.362;4.606;2023-07-29T21:37:21;-6.70;26.10
61339;DHT22;47213;52.362;4.606;2023-07-29T21:42:21;-6.60;26.10
61339;DHT22;47213;52.362;4.606;2023-07-29T21:47:21;-6.80;26.10
61339;DHT22;47213;52.362;4.606;2023-07-29T21:52:21;-6.60;26.10
61339;DHT22;47213;52.362;4.606;2023-07-29T21:57:22;-6.70;26.10
61339;DHT22;47213;52.362;4.606;2023-07-29T22:02:21;-6.40;26.10
61339;DHT22;47213;52.362;4.606;2023-07-29T22:12:21;-6.50;26.10
61339;DHT22;47213;52.362;4.606;2023-07-29T22:17:21;-6.60;26.10
61339;DHT22;47213;52.362;4.606;2023-07-29T22:22:21;-6.50;26.10
61339;DHT22;47213;52.362;4.606;2023-07-29T22:42:22;-6.40;26.10
61339;DHT22;47213;52.362;4.606;2023-07-29T22:47:22;-6.30;26.10
61339;DHT22;47213;52.362;4.606;2023-07-29T22:52:22;-6.40;26.10
61339;DHT22;47213;52.362;4.606;2023-07-29T23:12:22;-6.30;26.10
61339;DHT22;47213;52.362;4.606;2023-07-29T23:22:22;-6.40;26.10
61339;DHT22;47213;52.362;4.606;2023-07-29T23:32:22;-6.50;26.10
61339;DHT22;47213;52.362;4.606;2023-07-29T23:52:22;-6.40;26.10
